createdAt,value
2022-12-24T00:01:32.688Z,100220.72
2022-12-24T00:03:59.292Z,100222.28
2022-12-24T00:06:25.774Z,100212.72
2022-12-24T00:08:52.564Z,100213.22
2022-12-24T00:11:20.740Z,100212.72
2022-12-24T00:13:47.797Z,100218.47
2022-12-24T00:16:14.994Z,100227.94
2022-12-24T00:18:45.749Z,100225.50
2022-12-24T00:21:12.966Z,100229.53
2022-12-24T00:23:40.458Z,100233.97
2022-12-24T00:26:07.457Z,100230.22
2022-12-24T00:28:33.973Z,100227.56
2022-12-24T00:31:00.516Z,100227.06
2022-12-24T00:33:27.799Z,100226.75
2022-12-24T00:35:55.167Z,100249.22
2022-12-24T00:38:21.767Z,100240.16
2022-12-24T00:40:48.249Z,100236.50
2022-12-24T00:43:15.424Z,100246.13
2022-12-24T00:45:42.679Z,100234.97
2022-12-24T00:48:09.238Z,100254.47
2022-12-24T00:50:35.723Z,100261.06
2022-12-24T00:53:02.217Z,100260.34
2022-12-24T00:55:28.727Z,100255.94
2022-12-24T00:57:55.178Z,100256.78
2022-12-24T01:00:21.803Z,100250.22
2022-12-24T01:02:48.415Z,100243.78
2022-12-24T01:05:15.134Z,100249.47
2022-12-24T01:07:44.322Z,100244.69
2022-12-24T01:10:13.072Z,100246.50
2022-12-24T01:12:40.674Z,100242.13
2022-12-24T01:15:08.169Z,100243.19
2022-12-24T01:17:35.077Z,100241.44
2022-12-24T01:20:01.907Z,100237.53
2022-12-24T01:22:28.389Z,100234.81
2022-12-24T01:24:54.915Z,100239.22
2022-12-24T01:27:21.476Z,100235.50
2022-12-24T01:29:47.937Z,100245.47
2022-12-24T01:32:14.445Z,100237.75
2022-12-24T01:34:41.055Z,100245.97
2022-12-24T01:37:07.486Z,100246.69
2022-12-24T01:39:34.088Z,100255.84
2022-12-24T01:42:19.285Z,100247.63
2022-12-24T01:44:48.541Z,100257.16
2022-12-24T01:47:19.854Z,100255.41
2022-12-24T01:50:12.578Z,100263.44
2022-12-24T01:52:39.400Z,100269.66
2022-12-24T01:55:09.516Z,100262.72
2022-12-24T01:57:42.447Z,100268.06
2022-12-24T02:00:12.299Z,100262.94
2022-12-24T02:02:45.190Z,100264.44
2022-12-24T02:05:15.657Z,100271.72
2022-12-24T02:07:42.345Z,100257.16
2022-12-24T02:10:11.182Z,100270.00
2022-12-24T02:12:38.020Z,100275.44
2022-12-24T02:15:06.855Z,100283.41
2022-12-24T02:17:43.387Z,100284.34
2022-12-24T02:20:40.194Z,100283.41
2022-12-24T02:23:34.771Z,100285.50
2022-12-24T02:26:25.629Z,100284.88
2022-12-24T02:29:20.233Z,100287.94
2022-12-24T02:31:59.545Z,100291.66
2022-12-24T02:34:32.068Z,100291.66
2022-12-24T02:37:18.392Z,100298.31
2022-12-24T02:39:57.116Z,100302.88
2022-12-24T02:42:32.371Z,100313.78
2022-12-24T02:45:11.439Z,100317.03
2022-12-24T02:47:38.408Z,100302.97
2022-12-24T02:50:07.908Z,100317.81
2022-12-24T02:52:35.706Z,100310.00
2022-12-24T02:55:27.978Z,100317.63
2022-12-24T02:58:18.498Z,100310.97
2022-12-24T03:01:17.419Z,100316.19
2022-12-24T03:04:39.200Z,100314.56
2022-12-24T03:07:23.627Z,100313.06
2022-12-24T03:10:04.692Z,100317.41
2022-12-24T03:12:44.395Z,100313.72
2022-12-24T03:15:13.744Z,100322.94
2022-12-24T03:17:42.836Z,100320.06
2022-12-24T03:20:11.304Z,100321.34
2022-12-24T03:22:38.164Z,100318.38
2022-12-24T03:25:05.305Z,100321.19
2022-12-24T03:27:32.870Z,100332.59
2022-12-24T03:29:59.578Z,100341.53
2022-12-24T03:32:29.959Z,100339.34
2022-12-24T03:34:56.742Z,100346.09
2022-12-24T03:37:23.993Z,100347.84
2022-12-24T03:39:50.490Z,100353.81
2022-12-24T03:42:16.989Z,100358.56
2022-12-24T03:44:43.568Z,100367.06
2022-12-24T03:47:10.046Z,100352.41
2022-12-24T03:49:36.491Z,100360.03
2022-12-24T03:52:03.243Z,100363.22
2022-12-24T03:54:29.750Z,100358.88
2022-12-24T03:56:56.209Z,100357.72
2022-12-24T03:59:22.667Z,100353.50
2022-12-24T04:01:49.428Z,100358.59
2022-12-24T04:04:16.266Z,100360.41
2022-12-24T04:06:42.804Z,100364.97
2022-12-24T04:09:09.283Z,100367.59
2022-12-24T04:11:35.780Z,100365.88
2022-12-24T04:14:02.228Z,100375.69
2022-12-24T04:16:28.705Z,100374.00
2022-12-24T04:18:55.249Z,100372.34
2022-12-24T04:21:21.736Z,100369.16
2022-12-24T04:23:48.322Z,100372.03
2022-12-24T04:26:15.044Z,100375.22
2022-12-24T04:28:42.594Z,100373.44
2022-12-24T04:31:12.287Z,100372.53
2022-12-24T04:33:38.827Z,100380.94
2022-12-24T04:36:07.022Z,100384.75
2022-12-24T04:38:34.262Z,100380.69
2022-12-24T04:41:03.234Z,100378.28
2022-12-24T04:43:30.300Z,100387.38
2022-12-24T04:45:57.042Z,100384.13
2022-12-24T04:48:23.544Z,100394.44
2022-12-24T04:50:50.013Z,100391.91
2022-12-24T04:53:16.548Z,100397.63
2022-12-24T04:55:46.070Z,100403.56
2022-12-24T04:58:13.140Z,100398.63
2022-12-24T05:00:40.389Z,100403.44
2022-12-24T05:03:07.242Z,100410.16
2022-12-24T05:05:33.754Z,100401.78
2022-12-24T05:08:00.250Z,100393.84
2022-12-24T05:10:26.762Z,100398.41
2022-12-24T05:12:53.464Z,100391.38
2022-12-24T05:15:19.927Z,100397.06
2022-12-24T05:17:46.399Z,100392.75
2022-12-24T05:20:12.844Z,100394.69
2022-12-24T05:22:58.073Z,100401.88
2022-12-24T05:25:43.009Z,100407.56
2022-12-24T05:28:09.472Z,100411.28
2022-12-24T05:30:35.947Z,100411.28
2022-12-24T05:33:02.468Z,100408.03
2022-12-24T05:35:28.909Z,100423.41
2022-12-24T05:37:58.285Z,100418.09
2022-12-24T05:40:24.915Z,100423.91
2022-12-24T05:42:51.377Z,100424.81
2022-12-24T05:45:17.871Z,100424.72
2022-12-24T05:47:44.282Z,100428.13
2022-12-24T05:50:11.118Z,100436.50
2022-12-24T05:52:37.553Z,100437.03
2022-12-24T05:55:04.752Z,100431.22
2022-12-24T05:57:31.184Z,100436.56
2022-12-24T05:59:57.639Z,100435.38
2022-12-24T06:02:24.183Z,100440.69
2022-12-24T06:04:50.722Z,100436.94
2022-12-24T06:07:17.206Z,100432.81
2022-12-24T06:09:43.679Z,100449.66
2022-12-24T06:12:10.107Z,100448.06
2022-12-24T06:14:36.567Z,100437.78
2022-12-24T06:17:03.044Z,100442.81
2022-12-24T06:19:29.541Z,100445.13
2022-12-24T06:21:55.973Z,100452.66
2022-12-24T06:24:22.448Z,100446.03
2022-12-24T06:26:48.878Z,100444.28
2022-12-24T06:29:15.348Z,100437.25
2022-12-24T06:31:41.847Z,100448.56
2022-12-24T06:34:08.343Z,100452.72
2022-12-24T06:36:34.851Z,100458.50
2022-12-24T06:39:01.423Z,100443.50
2022-12-24T06:41:27.951Z,100459.34
2022-12-24T06:43:54.492Z,100472.84
2022-12-24T06:46:21.642Z,100469.03
2022-12-24T06:48:48.546Z,100463.03
2022-12-24T06:51:16.688Z,100468.44
2022-12-24T06:53:43.153Z,100463.19
2022-12-24T06:56:12.177Z,100473.00
2022-12-24T06:58:39.129Z,100477.50
2022-12-24T07:01:07.352Z,100485.41
2022-12-24T07:03:34.309Z,100484.78
2022-12-24T07:06:01.141Z,100492.75
2022-12-24T07:08:27.887Z,100487.81
2022-12-24T07:10:54.761Z,100488.22
2022-12-24T07:13:21.479Z,100484.53
2022-12-24T07:15:48.000Z,100483.66
2022-12-24T07:18:14.471Z,100488.97
2022-12-24T07:20:42.815Z,100487.06
2022-12-24T07:23:09.272Z,100492.72
2022-12-24T07:25:35.733Z,100499.59
2022-12-24T07:28:02.161Z,100494.47
2022-12-24T07:30:28.706Z,100493.66
2022-12-24T07:32:55.162Z,100503.53
2022-12-24T07:35:21.663Z,100507.31
2022-12-24T07:37:48.097Z,100504.69
2022-12-24T07:40:14.851Z,100512.41
2022-12-24T07:42:41.301Z,100513.84
2022-12-24T07:45:08.178Z,100520.94
2022-12-24T07:47:35.194Z,100514.28
2022-12-24T07:50:01.744Z,100519.25
2022-12-24T07:52:28.186Z,100528.16
2022-12-24T07:54:54.687Z,100534.28
2022-12-24T07:57:21.128Z,100529.00
2022-12-24T07:59:47.601Z,100539.69
2022-12-24T08:02:18.213Z,100533.72
2022-12-24T08:04:45.208Z,100539.34
2022-12-24T08:07:11.680Z,100535.75
2022-12-24T08:09:38.574Z,100534.31
2022-12-24T08:12:05.297Z,100552.72
2022-12-24T08:14:31.983Z,100560.16
2022-12-24T08:16:58.490Z,100566.81
2022-12-24T08:19:25.097Z,100566.84
2022-12-24T08:21:51.571Z,100566.78
2022-12-24T08:24:18.092Z,100562.56
2022-12-24T08:26:44.597Z,100566.34
2022-12-24T08:29:11.925Z,100564.56
2022-12-24T08:31:38.576Z,100564.06
2022-12-24T08:34:06.998Z,100570.94
2022-12-24T08:36:34.116Z,100572.50
2022-12-24T08:39:03.501Z,100570.34
2022-12-24T08:41:31.337Z,100574.22
2022-12-24T08:43:57.860Z,100573.69
2022-12-24T08:46:24.416Z,100584.00
2022-12-24T08:48:50.885Z,100577.06
2022-12-24T08:51:19.202Z,100577.44
2022-12-24T08:53:46.792Z,100575.91
2022-12-24T08:56:13.836Z,100587.13
2022-12-24T08:58:40.427Z,100598.47
2022-12-24T09:01:16.363Z,100592.16
2022-12-24T09:03:43.319Z,100590.72
2022-12-24T09:06:10.472Z,100585.25
2022-12-24T09:08:37.396Z,100586.53
2022-12-24T09:11:09.588Z,100593.50
2022-12-24T09:13:36.152Z,100590.63
2022-12-24T09:16:02.951Z,100588.84
2022-12-24T09:18:29.878Z,100594.03
2022-12-24T09:21:01.193Z,100593.41
2022-12-24T09:23:28.646Z,100609.19
2022-12-24T09:25:55.229Z,100617.50
2022-12-24T09:28:22.344Z,100625.13
2022-12-24T09:30:59.964Z,100621.22
2022-12-24T09:33:28.136Z,100626.25
2022-12-24T09:35:54.826Z,100626.59
2022-12-24T09:38:22.121Z,100620.06
2022-12-24T09:40:49.367Z,100619.22
2022-12-24T09:43:21.945Z,100623.31
2022-12-24T09:46:14.743Z,100622.81
2022-12-24T09:48:44.607Z,100654.66
2022-12-24T09:51:13.243Z,100653.44
2022-12-24T09:53:45.827Z,100656.47
2022-12-24T09:56:38.038Z,100662.28
2022-12-24T09:59:09.325Z,100662.38
2022-12-24T10:01:35.970Z,100659.28
2022-12-24T10:04:11.390Z,100664.31
2022-12-24T10:06:54.601Z,100668.34
2022-12-24T10:09:39.391Z,100669.06
2022-12-24T10:12:14.387Z,100666.16
2022-12-24T10:14:50.267Z,100657.34
2022-12-24T10:17:32.321Z,100667.13
2022-12-24T10:20:20.643Z,100665.63
2022-12-24T10:22:55.157Z,100665.22
2022-12-24T10:25:26.644Z,100673.84
2022-12-24T10:27:54.999Z,100659.41
2022-12-24T10:30:23.198Z,100665.22
2022-12-24T10:32:52.026Z,100674.63
2022-12-24T10:35:20.209Z,100678.94
2022-12-24T10:37:48.866Z,100674.63
2022-12-24T10:40:35.733Z,100669.41
2022-12-24T10:43:02.429Z,100658.97
2022-12-24T10:45:37.686Z,100675.13
2022-12-24T10:48:07.782Z,100673.84
2022-12-24T10:50:53.810Z,100677.69
2022-12-24T10:53:37.104Z,100684.81
2022-12-24T10:56:07.934Z,100687.13
2022-12-24T10:58:35.349Z,100673.97
2022-12-24T11:01:02.444Z,100674.88
2022-12-24T11:03:34.932Z,100690.41
2022-12-24T11:06:08.142Z,100681.34
2022-12-24T11:08:36.745Z,100678.78
2022-12-24T11:11:06.055Z,100689.22
2022-12-24T11:13:39.532Z,100685.00
2022-12-24T11:16:10.417Z,100689.09
2022-12-24T11:18:40.154Z,100689.91
2022-12-24T11:21:08.956Z,100700.22
2022-12-24T11:23:35.552Z,100687.03
2022-12-24T11:26:02.343Z,100678.72
2022-12-24T11:28:33.507Z,100685.25
2022-12-24T11:31:07.236Z,100681.59
2022-12-24T11:33:46.922Z,100668.56
2022-12-24T11:36:13.995Z,100669.50
2022-12-24T11:38:41.069Z,100674.56
2022-12-24T11:41:11.856Z,100678.28
2022-12-24T11:43:46.364Z,100672.06
2022-12-24T11:46:17.488Z,100671.13
2022-12-24T11:48:44.156Z,100668.06
2022-12-24T11:51:25.197Z,100671.44
2022-12-24T11:54:01.049Z,100677.88
2022-12-24T11:56:40.661Z,100682.84
2022-12-24T11:59:39.507Z,100674.81
2022-12-24T12:02:34.725Z,100683.13
2022-12-24T12:05:07.982Z,100679.00
2022-12-24T12:07:36.501Z,100675.91
2022-12-24T12:10:21.517Z,100669.78
2022-12-24T12:12:56.408Z,100685.63
2022-12-24T12:15:25.722Z,100681.56
2022-12-24T12:17:56.747Z,100682.44
2022-12-24T12:20:47.990Z,100675.81
2022-12-24T12:23:47.323Z,100678.56
2022-12-24T12:26:26.620Z,100686.22
2022-12-24T12:29:11.301Z,100688.22
2022-12-24T12:31:55.111Z,100684.03
2022-12-24T12:34:24.723Z,100688.19
2022-12-24T12:36:53.433Z,100677.84
2022-12-24T12:39:21.522Z,100688.59
2022-12-24T12:41:55.642Z,100689.53
2022-12-24T12:44:38.452Z,100693.91
2022-12-24T12:47:27.416Z,100696.03
2022-12-24T12:50:08.685Z,100699.16
2022-12-24T12:52:47.265Z,100702.69
2022-12-24T12:55:32.002Z,100690.19
2022-12-24T12:58:01.601Z,100692.44
2022-12-24T13:00:31.044Z,100695.75
2022-12-24T13:03:09.764Z,100696.41
2022-12-24T13:05:39.294Z,100700.00
2022-12-24T13:08:36.728Z,100696.91
2022-12-24T13:11:51.457Z,100701.38
2022-12-24T13:14:30.598Z,100717.69
2022-12-24T13:17:06.078Z,100716.84
2022-12-24T13:19:54.575Z,100713.16
2022-12-24T13:22:22.159Z,100707.94
2022-12-24T13:24:52.374Z,100713.09
2022-12-24T13:27:32.266Z,100722.94
2022-12-24T13:30:10.004Z,100727.25
2022-12-24T13:32:47.606Z,100720.75
2022-12-24T13:35:20.827Z,100725.75
2022-12-24T13:37:51.285Z,100737.31
2022-12-24T13:40:25.350Z,100743.53
2022-12-24T13:43:01.346Z,100749.59
2022-12-24T13:45:31.062Z,100750.22
2022-12-24T13:48:01.482Z,100744.25
2022-12-24T13:51:18.211Z,100749.88
2022-12-24T13:53:46.549Z,100763.22
2022-12-24T13:56:15.273Z,100755.75
2022-12-24T13:58:44.856Z,100770.19
2022-12-24T14:01:22.480Z,100766.75
2022-12-24T14:03:51.761Z,100764.78
2022-12-24T14:06:36.561Z,100765.81
2022-12-24T14:09:17.514Z,100770.41
2022-12-24T14:12:07.903Z,100776.00
2022-12-24T14:14:38.918Z,100774.78
2022-12-24T14:17:27.243Z,100770.53
2022-12-24T14:20:02.415Z,100775.28
2022-12-24T14:22:34.528Z,100773.34
2022-12-24T14:25:08.277Z,100777.75
2022-12-24T14:27:48.333Z,100784.66
2022-12-24T14:30:24.274Z,100779.31
2022-12-24T14:32:52.371Z,100784.63
2022-12-24T14:35:20.831Z,100786.84
2022-12-24T14:38:06.078Z,100791.78
2022-12-24T14:40:35.790Z,100790.16
2022-12-24T14:43:35.165Z,100784.75
2022-12-24T14:46:29.240Z,100796.31
2022-12-24T14:49:01.356Z,100795.06
2022-12-24T14:51:41.369Z,100798.09
2022-12-24T14:54:30.360Z,100799.56
2022-12-24T14:57:13.031Z,100802.28
2022-12-24T15:00:01.805Z,100798.34
2022-12-24T15:02:49.758Z,100793.19
2022-12-24T15:05:29.415Z,100808.00
2022-12-24T15:08:16.955Z,100811.34
2022-12-24T15:10:45.652Z,100817.72
2022-12-24T15:13:32.656Z,100811.13
2022-12-24T15:16:04.574Z,100815.03
2022-12-24T15:18:33.752Z,100818.38
2022-12-24T15:21:04.705Z,100821.44
2022-12-24T15:23:37.135Z,100828.34
2022-12-24T15:26:24.725Z,100831.50
2022-12-24T15:29:03.773Z,100831.84
2022-12-24T15:31:32.171Z,100826.78
2022-12-24T15:34:00.622Z,100833.22
2022-12-24T15:36:33.008Z,100830.25
2022-12-24T15:39:05.611Z,100841.50
2022-12-24T15:42:00.896Z,100839.25
2022-12-24T15:44:36.395Z,100844.19
2022-12-24T15:47:06.584Z,100837.19
2022-12-24T15:49:35.554Z,100838.28
2022-12-24T15:52:08.693Z,100835.97
2022-12-24T15:54:37.459Z,100839.00
2022-12-24T15:57:23.129Z,100849.66
2022-12-24T15:59:56.463Z,100851.53
2022-12-24T16:02:33.048Z,100851.66
2022-12-24T16:05:40.501Z,100863.22
2022-12-24T16:08:23.265Z,100866.22
2022-12-24T16:10:53.415Z,100859.66
2022-12-24T16:13:23.747Z,100856.59
2022-12-24T16:16:01.489Z,100863.94
2022-12-24T16:18:59.917Z,100869.19
2022-12-24T16:21:47.165Z,100869.53
2022-12-24T16:24:20.366Z,100866.19
2022-12-24T16:26:48.339Z,100869.72
2022-12-24T16:29:19.563Z,100869.72
2022-12-24T16:31:54.584Z,100869.78
2022-12-24T16:34:25.157Z,100878.06
2022-12-24T16:36:52.671Z,100874.97
2022-12-24T16:39:34.727Z,100880.97
2022-12-24T16:42:22.687Z,100885.38
2022-12-24T16:44:53.967Z,100887.69
2022-12-24T16:47:23.287Z,100883.72
2022-12-24T16:49:50.999Z,100886.81
2022-12-24T16:52:25.482Z,100896.69
2022-12-24T16:54:54.146Z,100895.03
2022-12-24T16:57:22.071Z,100890.91
2022-12-24T16:59:52.447Z,100905.75
2022-12-24T17:02:24.611Z,100908.53
2022-12-24T17:04:52.035Z,100896.06
2022-12-24T17:07:21.548Z,100900.06
2022-12-24T17:09:50.899Z,100908.72
2022-12-24T17:12:19.604Z,100910.34
2022-12-24T17:14:55.275Z,100907.25
2022-12-24T17:17:29.026Z,100909.69
2022-12-24T17:19:57.592Z,100914.59
2022-12-24T17:22:25.064Z,100914.06
2022-12-24T17:24:52.815Z,100914.69
2022-12-24T17:27:19.996Z,100920.63
2022-12-24T17:29:46.909Z,100915.97
2022-12-24T17:32:13.589Z,100922.34
2022-12-24T17:34:48.073Z,100924.50
2022-12-24T17:37:14.580Z,100919.16
2022-12-24T17:39:41.072Z,100926.63
2022-12-24T17:42:07.582Z,100924.00
2022-12-24T17:44:34.123Z,100927.50
2022-12-24T17:47:01.959Z,100922.78
2022-12-24T17:49:29.349Z,100918.84
2022-12-24T17:51:56.111Z,100926.59
2022-12-24T17:54:22.670Z,100931.06
2022-12-24T17:56:49.178Z,100930.47
2022-12-24T17:59:15.965Z,100938.31
2022-12-24T18:01:42.536Z,100938.09
2022-12-24T18:04:10.108Z,100941.00
2022-12-24T18:06:39.948Z,100947.66
2022-12-24T18:09:08.474Z,100951.44
2022-12-24T18:11:36.736Z,100952.31
2022-12-24T18:14:05.277Z,100945.63
2022-12-24T18:16:34.706Z,100948.75
2022-12-24T18:19:01.570Z,100965.34
2022-12-24T18:21:32.661Z,100956.19
2022-12-24T18:23:59.420Z,100957.28
2022-12-24T18:26:27.714Z,100960.88
2022-12-24T18:28:56.183Z,100964.31
2022-12-24T18:31:23.895Z,100964.41
2022-12-24T18:33:51.200Z,100962.84
2022-12-24T18:36:18.727Z,100971.25
2022-12-24T18:38:45.311Z,100976.84
2022-12-24T18:41:14.264Z,100972.72
2022-12-24T18:43:41.543Z,100978.81
2022-12-24T18:46:13.712Z,100976.72
2022-12-24T18:48:40.367Z,100988.34
2022-12-24T18:51:07.592Z,100984.78
2022-12-24T18:53:34.421Z,100977.31
2022-12-24T18:56:11.472Z,100981.53
2022-12-24T18:58:38.042Z,100987.00
2022-12-24T19:01:19.490Z,100985.97
2022-12-24T19:03:47.980Z,100990.41
2022-12-24T19:06:14.548Z,101001.66
2022-12-24T19:08:59.215Z,100991.47
2022-12-24T19:11:27.836Z,100991.41
2022-12-24T19:13:54.409Z,100995.59
2022-12-24T19:16:21.598Z,100993.09
2022-12-24T19:18:48.328Z,101002.28
2022-12-24T19:21:17.208Z,100997.66
2022-12-24T19:23:44.816Z,101002.97
2022-12-24T19:26:12.589Z,101008.13
2022-12-24T19:28:39.303Z,101007.56
2022-12-24T19:31:10.940Z,101001.44
2022-12-24T19:33:44.142Z,101000.31
2022-12-24T19:36:13.518Z,100999.53
2022-12-24T19:38:40.449Z,101007.44
2022-12-24T19:41:12.772Z,101007.59
2022-12-24T19:43:47.616Z,101007.44
2022-12-24T19:46:16.251Z,101001.34
2022-12-24T19:48:43.595Z,101013.00
2022-12-24T19:51:11.982Z,101008.22
2022-12-24T19:53:39.756Z,101014.13
2022-12-24T19:56:07.048Z,101013.16
2022-12-24T19:58:33.574Z,101023.00
2022-12-24T20:01:14.524Z,101021.31
2022-12-24T20:03:42.163Z,101016.56
2022-12-24T20:06:08.757Z,101016.47
2022-12-24T20:08:36.665Z,101012.97
2022-12-24T20:11:05.730Z,101010.97
2022-12-24T20:13:33.582Z,101014.19
2022-12-24T20:16:04.669Z,101014.53
2022-12-24T20:18:31.354Z,101020.69
2022-12-24T20:21:02.336Z,101025.28
2022-12-24T20:23:28.931Z,101034.56
2022-12-24T20:26:00.195Z,101031.91
2022-12-24T20:28:28.161Z,101032.41
2022-12-24T20:30:54.628Z,101039.44
2022-12-24T20:33:21.337Z,101044.69
2022-12-24T20:35:48.265Z,101040.22
2022-12-24T20:38:14.999Z,101052.44
2022-12-24T20:40:42.847Z,101056.25
2022-12-24T20:43:09.672Z,101056.09
2022-12-24T20:45:36.525Z,101054.66
2022-12-24T20:48:03.116Z,101065.28
2022-12-24T20:50:29.548Z,101069.63
2022-12-24T20:52:56.064Z,101067.72
2022-12-24T20:55:22.601Z,101067.56
2022-12-24T20:57:49.813Z,101076.91
2022-12-24T21:00:17.379Z,101087.09
2022-12-24T21:02:46.691Z,101083.00
2022-12-24T21:05:13.479Z,101089.88
2022-12-24T21:07:42.982Z,101085.06
2022-12-24T21:10:11.231Z,101086.28
2022-12-24T21:12:50.011Z,101090.00
2022-12-24T21:15:19.127Z,101082.28
2022-12-24T21:17:46.917Z,101088.28
2022-12-24T21:20:14.415Z,101094.28
2022-12-24T21:22:40.970Z,101094.41
2022-12-24T21:25:23.811Z,101099.28
2022-12-24T21:27:52.367Z,101108.34
2022-12-24T21:30:19.450Z,101115.69
2022-12-24T21:32:45.962Z,101117.09
2022-12-24T21:35:14.494Z,101127.03
2022-12-24T21:37:42.254Z,101129.84
2022-12-24T21:40:09.797Z,101133.78
2022-12-24T21:42:38.588Z,101123.81
2022-12-24T21:45:06.215Z,101121.97
2022-12-24T21:47:34.596Z,101119.25
2022-12-24T21:50:19.787Z,101131.19
2022-12-24T21:52:47.031Z,101129.16
2022-12-24T21:55:13.521Z,101132.13
2022-12-24T21:57:55.469Z,101133.72
2022-12-24T22:00:22.166Z,101145.56
2022-12-24T22:02:50.593Z,101141.97
2022-12-24T22:05:17.574Z,101138.69
2022-12-24T22:08:02.935Z,101142.75
2022-12-24T22:10:48.091Z,101146.13
2022-12-24T22:13:16.332Z,101144.19
2022-12-24T22:15:46.933Z,101143.59
2022-12-24T22:18:16.048Z,101149.59
2022-12-24T22:20:44.985Z,101158.19
2022-12-24T22:23:13.444Z,101160.03
2022-12-24T22:25:42.608Z,101164.75
2022-12-24T22:28:09.494Z,101169.66
2022-12-24T22:30:38.973Z,101161.31
2022-12-24T22:33:07.761Z,101167.41
2022-12-24T22:35:39.492Z,101159.44
2022-12-24T22:38:08.086Z,101162.59
2022-12-24T22:40:35.556Z,101164.50
2022-12-24T22:43:03.105Z,101162.03
2022-12-24T22:45:31.552Z,101161.41
2022-12-24T22:47:58.302Z,101161.38
2022-12-24T22:50:25.575Z,101162.28
2022-12-24T22:52:53.641Z,101172.66
2022-12-24T22:55:21.350Z,101165.22
2022-12-24T22:57:48.856Z,101157.44
2022-12-24T23:00:36.839Z,101165.41
2022-12-24T23:03:04.560Z,101160.19
2022-12-24T23:05:31.245Z,101161.41
2022-12-24T23:07:57.738Z,101163.81
2022-12-24T23:10:24.405Z,101166.41
2022-12-24T23:13:14.565Z,101168.03
2022-12-24T23:15:41.711Z,101171.50
2022-12-24T23:18:08.733Z,101179.59
2022-12-24T23:20:42.345Z,101171.50
2022-12-24T23:23:09.443Z,101176.84
2022-12-24T23:25:35.992Z,101179.66
2022-12-24T23:28:02.711Z,101185.22
2022-12-24T23:30:29.138Z,101183.94
2022-12-24T23:32:55.742Z,101181.88
2022-12-24T23:35:22.202Z,101185.88
2022-12-24T23:37:48.652Z,101170.88
2022-12-24T23:40:15.123Z,101169.72
2022-12-24T23:42:41.665Z,101179.16
2022-12-24T23:45:08.718Z,101184.56
2022-12-24T23:47:35.617Z,101191.13
2022-12-24T23:50:02.179Z,101193.38
2022-12-24T23:52:28.632Z,101210.56
2022-12-24T23:54:55.136Z,101202.16
2022-12-24T23:57:21.641Z,101217.09
2022-12-24T23:59:48.139Z,101211.81
